TFM - Tactical Decision Aid INFO Settings
 
 

Runway Winds:

KDFW - Dallas/Fort Worth Intl

Updated at: 1351 UTC 20 Apr 2014
Latest TAF at: 1122 UTC 20 Apr 2014

TAF Board

Time1253Z20/14Z20/15Z20/16Z20/17Z20/18Z20/19Z20/20Z20/21Z20/22Z20/23Z21/00Z21/01Z21/02Z
TypeOBSPRVLPRVLPRVLPRVLPRVLPRVLPRVLPRVLPRVLPRVLPRVLPRVLPRVL
Vis10>6>6>6>6>6>6>6>6>6>6>6>6>6
Ceil2002502502502502502502502505050505040
CoverOVCBKNBKNBKNBKNBKNBKNBKNBKNBKNBKNBKNBKNBKN
FltCat--VFRVFRVFRVFRVFRVFRVFRVFRVFRVFRVFRVFRVFR
Wx--VCSHVCSHVCSHVCSHVCSHVCSHVCSHVCSHVCTSVCTSVCTSVCTS--
WDir200180180180180180180180180170170170170180
WSpd1012121212121212121414141410
WGst----------------------------
Raw TAF
KDFW 201122Z 2012/2118 18012KT P6SM VCSH SCT060 BKN250
  FM202200 17014KT P6SM VCTS BKN050CB
  FM210200 18010KT P6SM BKN040


Raw METAR
KDFW 201253Z 20010KT 10SM FEW060 FEW110 SCT140 OVC200 18/13 A3012 RMK AO2 WSHFT 1154 SLP193 T01830128 $

TAF/METAR Board Legend

Hazard Green Yellow Red Magenta
Visibility (sm) >5 >2.99 >0.99 <=0.99
Ceiling (100 ft) >30 >9.99 >4.9 <=4.9
Wind Speed (kt) <11 <23.1 >=23.1
Wind Gust (kt) <18 <30.1 >=30.1
Weather No Wx Reported Light precipitation Moderate precipitation Heavy precipitation
Flight Category VFR MVFR IFR LIFR

Page loaded:  13:51 UTC  |   06:51 AM Pacific  |   07:51 AM Mountain  |   08:51 AM Central  |   09:51 AM Eastern

 

ADVISORIES

FORECASTS

FORECASTS

OBSERVATIONS

USER TOOLS

ABOUT US